Time;durP1;ratioP1;P1;durP2;ratioP2;P2;SDS_P1;SDS_P2;PMS_P1;PMS_P2;Temp;Humidity;BMP_temperature;BMP_pressure;BME280_temperature;BME280_humidity;BME280_pressure;Samples;Min_cycle;Max_cycle;Signal;HPM_P1;HPM_P2
2022/01/20 00:00:20;;;;;;;18.13;4.60;;;;;;;1.74;88.82;100526.38;5060532;28;20583;-77
2022/01/20 00:02:59;;;;;;;18.20;3.65;;;;;;;1.72;88.55;100507.22;5078637;28;20025;-77
2022/01/20 00:06:13;;;;;;;17.05;2.50;;;;;;;1.75;87.79;100487.72;5070795;28;20623;-78
2022/01/20 00:27:36;;;;;;;15.55;2.72;;;;;;;1.57;88.65;100547.78;4996109;28;20503;-77
2022/01/20 00:32:50;;;;;;;23.10;3.53;;;;;;;1.43;89.94;100580.34;5080318;28;19912;-75
2022/01/20 00:35:24;;;;;;;18.50;2.53;;;;;;;1.21;91.40;100594.13;5053723;28;20032;-77
2022/01/20 00:37:50;;;;;;;16.02;2.63;;;;;;;1.00;92.88;100638.53;5081544;28;20327;-79
2022/01/20 00:40:16;;;;;;;19.10;3.55;;;;;;;0.84;94.23;100657.09;5081022;28;20529;-78
2022/01/20 00:42:41;;;;;;;15.38;2.45;;;;;;;0.87;95.93;100696.34;5063925;28;20071;-77
2022/01/20 00:45:08;;;;;;;19.35;2.72;;;;;;;0.90;96.66;100711.91;5081360;28;20039;-77
2022/01/20 00:47:34;;;;;;;10.90;2.58;;;;;;;0.88;97.30;100710.31;5069254;28;20041;-77
2022/01/20 00:49:59;;;;;;;23.58;2.60;;;;;;;0.87;97.75;100685.81;5072538;28;20080;-78
2022/01/20 00:52:24;;;;;;;13.18;2.15;;;;;;;0.80;98.09;100687.19;5063953;28;20039;-79
2022/01/20 00:54:50;;;;;;;10.47;1.23;;;;;;;0.89;97.82;100699.72;5079114;28;20032;-77
2022/01/20 00:57:16;;;;;;;9.23;3.25;;;;;;;0.83;98.15;100700.94;5063274;28;20016;-78
2022/01/20 00:59:41;;;;;;;7.68;1.40;;;;;;;0.83;98.46;100716.72;5078586;28;20043;-77
2022/01/20 01:02:09;;;;;;;10.30;1.40;;;;;;;0.87;98.37;100708.63;5082821;28;20024;-77
2022/01/20 01:04:35;;;;;;;7.15;1.50;;;;;;;0.80;98.52;100705.56;5072492;28;20032;-81
2022/01/20 01:09:31;;;;;;;15.27;1.98;;;;;;;0.80;98.86;100711.66;5077741;28;20234;-80
2022/01/20 01:12:01;;;;;;;23.20;2.80;;;;;;;0.74;98.58;100703.34;5073003;28;20035;-77
2022/01/20 01:14:29;;;;;;;17.25;3.83;;;;;;;0.83;98.21;100715.88;5074715;28;20031;-78
2022/01/20 01:24:35;;;;;;;13.38;3.20;;;;;;;0.94;94.66;100618.75;5083227;28;20036;-78
2022/01/20 01:27:01;;;;;;;12.45;1.88;;;;;;;1.10;93.43;100600.16;5088561;28;20027;-78
2022/01/20 01:29:52;;;;;;;18.85;2.33;;;;;;;1.04;92.31;100572.47;5064625;28;20040;-78
2022/01/20 01:32:18;;;;;;;15.55;2.60;;;;;;;1.18;90.59;100526.00;5076908;28;20047;-79
2022/01/20 01:34:51;;;;;;;18.85;2.72;;;;;;;1.01;89.44;100472.78;5082961;28;20556;-77
2022/01/20 01:40:06;;;;;;;9.43;2.13;;;;;;;1.06;87.43;100456.69;5088059;28;20021;-77
2022/01/20 01:42:39;;;;;;;16.30;2.88;;;;;;;1.03;87.71;100430.59;5062935;28;20024;-77
2022/01/20 01:45:10;;;;;;;18.70;3.50;;;;;;;0.95;86.61;100404.03;5066583;28;20075;-78
2022/01/20 01:47:36;;;;;;;12.18;2.42;;;;;;;0.95;86.24;100377.75;5070268;28;20064;-77
2022/01/20 01:50:02;;;;;;;11.70;2.65;;;;;;;0.93;85.14;100353.34;5081385;28;20095;-77
2022/01/20 01:52:28;;;;;;;21.92;4.03;;;;;;;0.89;84.33;100320.34;5064765;28;20061;-76
2022/01/20 01:54:53;;;;;;;20.88;4.93;;;;;;;0.75;84.21;100298.53;5073657;28;20036;-77
2022/01/20 01:57:18;;;;;;;16.87;2.27;;;;;;;0.78;83.74;100316.72;5076646;28;20739;-77
2022/01/20 01:59:44;;;;;;;18.33;3.22;;;;;;;0.76;83.61;100313.34;5074647;28;20424;-78
2022/01/20 02:02:23;;;;;;;14.65;2.10;;;;;;;0.77;83.44;100308.94;5073323;28;20025;-76
2022/01/20 02:04:49;;;;;;;17.77;4.40;;;;;;;0.78;82.89;100281.72;5082657;28;20032;-76
2022/01/20 02:18:48;;;;;;;15.43;3.05;;;;;;;0.79;77.27;100084.50;5081498;28;20036;-78
2022/01/20 02:21:53;;;;;;;10.35;2.35;;;;;;;0.80;76.03;100038.88;5066399;28;20912;-78
2022/01/20 02:24:22;;;;;;;16.52;3.45;;;;;;;0.71;75.33;99991.47;5062643;28;20036;-77
2022/01/20 02:26:49;;;;;;;8.98;2.70;;;;;;;0.68;74.74;99961.00;5063825;28;20363;-76
2022/01/20 02:29:23;;;;;;;17.08;2.10;;;;;;;0.55;74.81;99947.97;5075790;28;20081;-76
2022/01/20 02:31:56;;;;;;;9.63;1.70;;;;;;;0.55;74.58;99960.25;5074811;28;20035;-77
2022/01/20 02:34:24;;;;;;;16.98;2.95;;;;;;;0.39;74.75;99974.56;5070436;28;20028;-76
2022/01/20 02:36:50;;;;;;;10.88;1.63;;;;;;;0.36;75.19;100006.31;5058229;28;20490;-80
2022/01/20 02:44:54;;;;;;;11.80;2.83;;;;;;;0.16;76.60;100106.69;5085954;28;20055;-78
2022/01/20 02:47:24;;;;;;;14.90;4.03;;;;;;;0.06;77.26;100163.44;5077819;28;20043;-80
2022/01/20 02:49:50;;;;;;;10.45;1.27;;;;;;;0.09;77.77;100179.81;5077498;28;20460;-82
2022/01/20 02:52:15;;;;;;;;;;;;;;;0.05;78.22;100194.13;5077131;28;20108;-80
2022/01/20 02:54:41;;;;;;;9.30;1.10;;;;;;;0.04;78.55;100236.22;5076316;28;19958;-80
2022/01/20 02:57:07;;;;;;;8.95;1.15;;;;;;;0.06;78.90;100248.28;5070859;28;20036;-80
2022/01/20 02:59:36;;;;;;;5.88;1.25;;;;;;;0.02;79.05;100252.06;5080964;28;20032;-82
2022/01/20 03:02:04;;;;;;;6.93;1.27;;;;;;;0.10;79.30;100265.50;5081904;28;20032;-81
2022/01/20 03:04:30;;;;;;;4.63;1.58;;;;;;;0.03;79.09;100245.03;5080539;28;20086;-81
2022/01/20 03:06:58;;;;;;;4.80;1.20;;;;;;;0.06;79.04;100256.16;5081172;28;20481;-80
2022/01/20 03:09:24;;;;;;;8.70;1.20;;;;;;;0.06;79.24;100257.94;5077114;28;20035;-81
2022/01/20 03:11:50;;;;;;;5.63;1.17;;;;;;;-0.02;79.18;100245.38;5096195;28;20177;-82
2022/01/20 03:14:17;;;;;;;9.98;0.90;;;;;;;-0.03;79.18;100241.88;5077312;28;20056;-79
2022/01/20 03:16:44;;;;;;;7.88;1.10;;;;;;;-0.12;79.57;100276.63;5070539;28;20027;-81
2022/01/20 03:19:11;;;;;;;5.80;1.02;;;;;;;-0.22;80.29;100288.72;5089430;28;20099;-81
2022/01/20 03:21:38;;;;;;;5.20;1.00;;;;;;;-0.26;80.83;100316.94;5089911;28;20032;-81
2022/01/20 03:24:04;;;;;;;;;;;;;;;-0.32;80.76;100340.13;5069537;28;20070;-80
2022/01/20 03:26:29;;;;;;;5.53;0.75;;;;;;;-0.43;81.09;100352.16;5073163;28;19925;-82
2022/01/20 03:28:57;;;;;;;5.90;1.50;;;;;;;-0.48;81.44;100377.03;5088892;28;20032;-80
2022/01/20 03:31:22;;;;;;;4.93;0.85;;;;;;;-0.51;81.77;100375.44;5077594;28;20271;-80
2022/01/20 03:33:47;;;;;;;8.37;1.20;;;;;;;-0.39;81.72;100393.94;5077614;28;20131;-80
2022/01/20 03:36:13;;;;;;;9.07;1.50;;;;;;;-0.37;81.83;100407.81;5080509;28;20327;-79
2022/01/20 03:38:57;;;;;;;14.38;1.80;;;;;;;-0.39;81.77;100410.50;5097837;22;20055;-79
2022/01/20 03:41:23;;;;;;;12.43;0.90;;;;;;;-0.39;82.10;100407.06;5038678;28;20029;-78
2022/01/20 03:43:52;;;;;;;8.48;1.35;;;;;;;-0.43;82.41;100435.25;5039087;28;20579;-79
2022/01/20 03:46:18;;;;;;;8.23;1.50;;;;;;;-0.40;82.21;100426.34;5038967;28;20024;-78
2022/01/20 03:48:50;;;;;;;12.60;1.73;;;;;;;-0.36;82.01;100420.78;5046723;28;20150;-79
2022/01/20 03:51:22;;;;;;;13.18;1.88;;;;;;;-0.25;81.97;100438.47;5054592;28;20309;-77
2022/01/20 03:53:53;;;;;;;;;;;;;;;-0.26;82.08;100436.78;5038637;28;20032;-78
2022/01/20 03:56:21;;;;;;;7.07;1.27;;;;;;;-0.27;81.98;100420.19;5088166;28;19912;-79
2022/01/20 03:58:59;;;;;;;7.18;1.67;;;;;;;-0.33;82.54;100446.84;5065376;28;20016;-77
2022/01/20 04:01:25;;;;;;;6.38;1.48;;;;;;;-0.32;82.84;100473.91;5055463;28;20036;-78
2022/01/20 04:04:12;;;;;;;13.07;1.92;;;;;;;-0.20;82.86;100498.53;5039798;28;20033;-79
2022/01/20 04:06:49;;;;;;;12.10;1.25;;;;;;;-0.26;83.24;100499.75;5039651;28;20032;-77
2022/01/20 04:09:14;;;;;;;12.37;3.20;;;;;;;-0.31;83.31;100496.56;5054597;28;20043;-77
2022/01/20 04:11:40;;;;;;;10.55;2.35;;;;;;;-0.30;83.56;100503.53;5054558;28;20287;-78
2022/01/20 04:14:06;;;;;;;20.42;3.15;;;;;;;-0.41;83.63;100488.47;5054145;28;20505;-78
2022/01/20 04:17:01;;;;;;;10.30;1.67;;;;;;;-0.33;83.53;100488.81;5053901;28;20068;-79
2022/01/20 04:19:27;;;;;;;25.25;5.93;;;;;;;-0.40;83.78;100478.81;5039921;28;20098;-78
2022/01/20 04:21:53;;;;;;;;;;;;;;;-0.44;83.83;100493.91;5087534;28;20099;-78
2022/01/20 04:24:18;;;;;;;13.43;2.72;;;;;;;-0.46;83.65;100499.25;5070775;28;20157;-78
2022/01/20 04:26:46;;;;;;;20.80;2.17;;;;;;;-0.44;83.88;100513.09;5072119;28;20032;-78
2022/01/20 04:29:13;;;;;;;12.45;2.88;;;;;;;-0.48;83.44;100510.78;5054081;28;20501;-77
2022/01/20 04:31:39;;;;;;;17.20;2.55;;;;;;;-0.40;83.20;100502.41;5034416;28;20120;-78
2022/01/20 04:34:07;;;;;;;15.07;2.13;;;;;;;-0.35;82.76;100488.06;5053955;28;20038;-77
2022/01/20 04:36:37;;;;;;;9.45;2.92;;;;;;;-0.43;82.51;100428.22;5054380;28;20079;-78
2022/01/20 04:39:08;;;;;;;13.23;1.80;;;;;;;-0.40;82.46;100479.63;5041797;28;20037;-78
2022/01/20 04:41:34;;;;;;;16.60;2.97;;;;;;;-0.41;82.30;100466.66;5083315;28;20654;-79
2022/01/20 04:44:04;;;;;;;13.38;2.28;;;;;;;-0.43;82.40;100475.44;5044370;28;20385;-77
2022/01/20 04:57:21;;;;;;;10.43;2.30;;;;;;;-0.30;78.26;100281.38;5054338;28;20036;-77
2022/01/20 04:59:50;;;;;;;13.52;2.80;;;;;;;-0.22;77.27;100228.38;5037059;28;20486;-78
2022/01/20 05:02:17;;;;;;;14.05;3.88;;;;;;;-0.17;76.39;100191.31;5052890;28;20028;-78
2022/01/20 05:04:55;;;;;;;12.45;2.42;;;;;;;-0.21;75.86;100146.09;5038012;28;20035;-77
2022/01/20 05:07:39;;;;;;;16.13;2.55;;;;;;;-0.25;75.15;100140.22;5039154;28;20089;-77
2022/01/20 05:10:10;;;;;;;20.38;3.00;;;;;;;-0.18;75.14;100156.38;5036509;28;20035;-79
2022/01/20 05:15:17;;;;;;;25.67;3.90;;;;;;;-0.11;73.69;100099.88;5047124;28;20240;-78
2022/01/20 05:17:42;;;;;;;16.10;2.33;;;;;;;-0.09;73.11;100073.53;5033863;28;20599;-78
2022/01/20 05:20:08;;;;;;;14.13;3.05;;;;;;;-0.12;72.68;100029.97;5033577;28;20123;-78
2022/01/20 05:22:34;;;;;;;15.88;2.15;;;;;;;-0.22;72.65;100028.97;5070316;28;20024;-77
2022/01/20 05:25:03;;;;;;;15.95;3.17;;;;;;;-0.19;72.09;100030.53;5061833;28;20040;-78
2022/01/20 05:27:29;;;;;;;16.27;3.00;;;;;;;-0.07;72.07;100038.38;5036216;28;20115;-78
2022/01/20 05:29:55;;;;;;;14.82;2.90;;;;;;;-0.08;71.61;100028.81;5036280;28;20177;-78
2022/01/20 05:32:22;;;;;;;14.88;2.50;;;;;;;-0.01;71.27;100027.41;5036886;28;20056;-79
2022/01/20 05:34:47;;;;;;;17.75;3.50;;;;;;;0.01;70.26;99993.19;5052758;28;20443;-78
2022/01/20 05:37:14;;;;;;;11.32;2.40;;;;;;;-0.01;70.44;99985.41;5035223;28;20131;-75
2022/01/20 05:39:41;;;;;;;14.02;3.70;;;;;;;-0.16;70.43;99973.44;5032387;28;20029;-75
2022/01/20 05:42:08;;;;;;;21.23;3.75;;;;;;;-0.17;70.97;100021.59;5032827;28;20044;-76
2022/01/20 05:44:49;;;;;;;23.92;4.20;;;;;;;-0.22;70.98;100028.97;5033192;28;20489;-76
2022/01/20 05:47:18;;;;;;;16.25;3.90;;;;;;;-0.12;71.14;100044.88;5029056;28;20124;-76
2022/01/20 05:50:15;;;;;;;15.43;2.93;;;;;;;-0.12;70.92;100029.97;5026448;28;20043;-75
2022/01/20 05:52:43;;;;;;;21.25;4.15;;;;;;;-0.17;70.98;100055.69;5048584;28;20025;-75
2022/01/20 05:55:21;;;;;;;11.32;3.72;;;;;;;-0.25;71.11;100040.53;5035985;28;20508;-78
2022/01/20 05:57:47;;;;;;;15.25;3.58;;;;;;;-0.22;71.44;100089.31;5037440;28;20470;-78
2022/01/20 06:00:20;;;;;;;23.40;2.85;;;;;;;-0.12;71.33;100095.56;5052782;28;20025;-77
2022/01/20 06:05:35;;;;;;;13.25;2.03;;;;;;;-0.13;71.56;100117.53;5052886;28;20501;-78
2022/01/20 06:08:01;;;;;;;;;;;;;;;-0.05;71.31;100117.81;5036253;28;20082;-78
2022/01/20 06:10:26;;;;;;;25.40;4.75;;;;;;;-0.13;71.24;100079.94;5052449;28;19916;-77
2022/01/20 06:12:59;;;;;;;20.88;2.63;;;;;;;-0.09;71.15;100099.78;5036894;28;20029;-78
2022/01/20 06:15:25;;;;;;;22.48;3.25;;;;;;;-0.15;71.32;100087.91;5051468;28;20117;-78
2022/01/20 06:17:50;;;;;;;25.02;3.53;;;;;;;-0.10;71.28;100119.91;5052482;28;20070;-77
2022/01/20 06:20:15;;;;;;;23.02;3.45;;;;;;;-0.10;71.30;100122.53;5052098;28;20429;-78
2022/01/20 06:22:42;;;;;;;19.58;3.30;;;;;;;-0.29;71.70;100122.19;5035188;28;20120;-77
2022/01/20 06:25:08;;;;;;;16.63;3.30;;;;;;;-0.35;72.20;100161.94;5051815;28;20107;-78
2022/01/20 06:27:35;;;;;;;19.98;3.90;;;;;;;-0.16;72.00;100180.72;5035527;28;20040;-78
2022/01/20 06:30:02;;;;;;;17.77;3.33;;;;;;;-0.12;72.26;100199.69;5084975;28;20077;-78
2022/01/20 06:32:28;;;;;;;19.05;4.00;;;;;;;-0.04;71.83;100211.34;5052437;28;20016;-79
2022/01/20 06:34:53;;;;;;;16.50;5.00;;;;;;;-0.07;71.82;100190.56;5034897;28;20025;-79
2022/01/20 06:37:19;;;;;;;31.67;3.97;;;;;;;-0.03;71.70;100202.50;5034934;28;20033;-77
2022/01/20 06:39:44;;;;;;;13.57;2.60;;;;;;;0.03;71.75;100224.88;5045535;28;20786;-77
2022/01/20 06:42:10;;;;;;;15.40;2.70;;;;;;;-0.08;72.01;100212.50;5059817;28;20060;-78
2022/01/20 06:44:35;;;;;;;17.48;4.30;;;;;;;-0.01;72.21;100253.09;5084405;28;20278;-77
2022/01/20 06:47:01;;;;;;;38.22;6.05;;;;;;;-0.17;72.65;100235.91;5061319;28;20498;-78
2022/01/20 06:49:32;;;;;;;22.33;4.45;;;;;;;0.02;72.26;100274.84;5033820;28;20033;-79
2022/01/20 06:52:03;;;;;;;14.68;3.90;;;;;;;-0.12;72.49;100260.88;5064050;28;20032;-78
2022/01/20 06:54:29;;;;;;;13.60;2.28;;;;;;;0.01;72.59;100307.28;5056122;28;20033;-77
2022/01/20 06:56:54;;;;;;;19.80;3.42;;;;;;;0.03;72.56;100322.00;5039770;28;20029;-77
2022/01/20 06:59:21;;;;;;;;;;;;;;;0.07;72.21;100288.47;5040537;28;20085;-78
2022/01/20 07:01:48;;;;;;;30.02;4.18;;;;;;;0.01;72.37;100288.94;5089724;28;19912;-79
2022/01/20 07:04:18;;;;;;;11.90;2.25;;;;;;;-0.03;72.43;100312.72;5036235;28;20052;-78
2022/01/20 07:06:44;;;;;;;18.60;2.95;;;;;;;-0.01;72.78;100316.09;5073686;28;20032;-76
2022/01/20 07:09:29;;;;;;;31.55;3.22;;;;;;;0.03;72.82;100322.00;5052820;28;20056;-77
2022/01/20 07:11:58;;;;;;;15.48;2.47;;;;;;;0.03;72.86;100344.78;5071567;28;20572;-79
2022/01/20 07:14:24;;;;;;;16.10;2.67;;;;;;;-0.02;73.06;100345.94;5065743;28;20033;-78
2022/01/20 07:16:49;;;;;;;13.23;4.70;;;;;;;-0.02;73.08;100345.94;5038710;28;20028;-77
2022/01/20 07:19:15;;;;;;;12.60;3.67;;;;;;;0.03;72.84;100368.41;5034211;28;20163;-78
2022/01/20 07:21:42;;;;;;;15.60;4.53;;;;;;;-0.10;73.18;100348.22;5072350;28;20016;-79
2022/01/20 07:24:11;;;;;;;12.80;2.05;;;;;;;-0.01;73.24;100383.50;5027147;28;20032;-79
2022/01/20 07:26:37;;;;;;;21.45;4.60;;;;;;;-0.04;73.30;100400.31;5085705;28;20040;-78
2022/01/20 07:29:09;;;;;;;14.00;3.25;;;;;;;-0.04;74.10;100417.84;5038994;28;20016;-78
2022/01/20 07:31:35;;;;;;;12.73;2.75;;;;;;;-0.02;73.52;100408.91;5038187;28;20170;-77
2022/01/20 07:34:01;;;;;;;14.18;3.58;;;;;;;0.05;73.70;100450.47;5055280;28;20177;-79
2022/01/20 07:36:26;;;;;;;20.65;2.47;;;;;;;-0.04;74.30;100452.78;5055436;28;20142;-80
2022/01/20 07:38:52;;;;;;;13.27;3.10;;;;;;;-0.07;74.28;100481.00;5054244;28;20068;-80
2022/01/20 07:41:19;;;;;;;24.60;2.53;;;;;;;-0.03;74.75;100506.94;5054462;28;20909;-80
2022/01/20 07:43:44;;;;;;;17.95;2.55;;;;;;;0.10;75.16;100540.31;5038412;28;20045;-77
2022/01/20 07:46:36;;;;;;;13.68;2.25;;;;;;;0.01;75.13;100533.03;5055729;28;20123;-78
2022/01/20 07:49:04;;;;;;;17.45;3.67;;;;;;;-0.05;75.55;100550.88;5064841;28;20052;-79
2022/01/20 07:51:29;;;;;;;18.95;3.17;;;;;;;0.07;76.13;100606.97;5070428;28;20036;-78
2022/01/20 07:53:56;;;;;;;15.95;2.65;;;;;;;0.15;75.64;100602.06;5087398;28;20033;-79
2022/01/20 07:56:21;;;;;;;10.30;2.60;;;;;;;0.07;75.95;100574.59;5056363;28;20094;-78
2022/01/20 07:58:47;;;;;;;15.30;2.95;;;;;;;0.23;75.68;100591.03;5056632;28;20040;-80
2022/01/20 08:01:12;;;;;;;19.77;2.80;;;;;;;0.42;75.29;100585.44;5056679;28;20405;-79
2022/01/20 08:03:46;;;;;;;20.67;3.80;;;;;;;0.58;75.14;100604.47;5041798;28;20178;-79
2022/01/20 08:06:14;;;;;;;17.98;2.40;;;;;;;0.64;74.91;100587.50;5057301;28;20063;-77
2022/01/20 08:08:43;;;;;;;18.83;2.85;;;;;;;0.52;74.77;100548.91;5039870;28;20024;-80
2022/01/20 08:11:29;;;;;;;16.23;4.07;;;;;;;0.62;74.73;100566.56;5050306;28;20061;-79
2022/01/20 08:14:05;;;;;;;16.33;3.47;;;;;;;0.74;74.57;100559.63;5055904;28;20044;-77
2022/01/20 08:16:31;;;;;;;10.47;2.73;;;;;;;0.67;74.22;100520.75;5053975;28;20044;-78
2022/01/20 08:18:56;;;;;;;20.05;2.78;;;;;;;0.64;74.36;100532.31;5068191;28;20290;-77
2022/01/20 08:21:22;;;;;;;20.70;3.22;;;;;;;0.61;74.31;100522.84;5050538;28;20094;-77
2022/01/20 08:23:49;;;;;;;12.32;2.28;;;;;;;0.79;74.03;100562.78;5089203;28;20093;-77
2022/01/20 08:26:15;;;;;;;19.77;2.78;;;;;;;0.93;73.92;100556.59;5041291;28;20020;-79
2022/01/20 08:28:42;;;;;;;16.67;3.28;;;;;;;1.11;73.45;100538.72;5041278;28;20040;-80
2022/01/20 08:31:08;;;;;;;24.38;3.92;;;;;;;1.34;72.63;100515.22;5058632;28;20032;-80
2022/01/20 08:33:33;;;;;;;15.70;2.40;;;;;;;1.54;72.26;100514.63;5058953;28;20016;-79
2022/01/20 08:36:04;;;;;;;16.00;3.85;;;;;;;1.56;71.68;100448.75;5066840;28;20529;-77
2022/01/20 08:38:39;;;;;;;17.52;3.25;;;;;;;1.76;71.40;100466.56;5050898;28;20121;-79
2022/01/20 08:41:04;;;;;;;10.90;3.13;;;;;;;1.88;71.11;100435.84;5058083;28;20071;-78
2022/01/20 08:43:37;;;;;;;16.70;2.85;;;;;;;2.19;70.65;100457.25;5032823;28;20029;-79
2022/01/20 08:46:03;;;;;;;17.77;3.03;;;;;;;2.11;70.09;100395.47;5043538;28;20036;-80
2022/01/20 08:48:28;;;;;;;11.38;2.50;;;;;;;2.22;70.03;100414.88;5034950;28;20777;-78
2022/01/20 08:51:14;;;;;;;10.00;2.47;;;;;;;2.64;69.14;100415.16;5052276;28;20032;-76
2022/01/20 08:53:55;;;;;;;20.50;3.00;;;;;;;2.56;68.34;100356.94;5033805;28;20036;-76
2022/01/20 08:56:24;;;;;;;22.60;2.92;;;;;;;3.01;67.98;100389.38;5030821;28;20033;-75
2022/01/20 08:58:49;;;;;;;21.55;3.80;;;;;;;3.33;67.34;100373.59;5067461;28;20042;-76
2022/01/20 09:01:15;;;;;;;24.20;2.67;;;;;;;3.10;66.23;100235.66;5051387;28;20024;-77
2022/01/20 09:03:42;;;;;;;13.03;3.03;;;;;;;3.27;65.67;100225.50;5050666;28;20275;-76
2022/01/20 09:06:08;;;;;;;9.50;2.03;;;;;;;3.84;64.85;100265.56;5031419;28;20351;-77
2022/01/20 09:08:42;;;;;;;14.70;2.20;;;;;;;3.71;63.90;100155.72;5069043;28;20037;-76
2022/01/20 09:11:22;;;;;;;9.60;3.17;;;;;;;3.79;63.19;100121.59;5031092;28;20029;-77
2022/01/20 09:16:39;;;;;;;11.98;2.45;;;;;;;3.97;61.30;100017.91;5050294;28;20090;-77
2022/01/20 09:19:13;;;;;;;17.90;3.47;;;;;;;4.00;61.38;100044.91;5049603;28;20029;-77
2022/01/20 09:21:46;;;;;;;10.65;2.17;;;;;;;3.93;60.86;99984.81;5050184;28;20052;-77
2022/01/20 09:24:12;;;;;;;13.13;2.05;;;;;;;4.13;59.94;99965.38;5033142;28;20393;-77
2022/01/20 09:26:38;;;;;;;12.23;1.92;;;;;;;5.06;59.25;100084.63;5033291;28;20021;-77
2022/01/20 09:29:04;;;;;;;8.52;2.03;;;;;;;4.85;58.25;99911.06;5032797;28;20035;-77
2022/01/20 09:31:36;;;;;;;8.55;2.05;;;;;;;4.68;58.00;99901.25;5049803;28;20037;-78
2022/01/20 09:34:01;;;;;;;18.33;3.20;;;;;;;4.84;58.15;99961.47;5049453;28;20028;-78
2022/01/20 09:36:30;;;;;;;12.45;2.75;;;;;;;4.56;57.87;99866.22;5033777;28;20446;-77
2022/01/20 09:41:50;;;;;;;11.00;1.95;;;;;;;4.88;56.73;99817.38;5007333;28;20065;-79
2022/01/20 09:44:17;;;;;;;10.80;2.42;;;;;;;4.68;58.00;99961.25;5002889;28;20045;-80
2022/01/20 09:46:47;;;;;;;12.65;2.38;;;;;;;5.16;57.64;100058.16;5002136;28;20030;-79
2022/01/20 09:49:30;;;;;;;12.35;3.22;;;;;;;4.83;57.61;100015.34;5017848;28;20052;-78
2022/01/20 09:51:58;;;;;;;11.38;3.08;;;;;;;4.93;57.91;100007.38;5019063;28;20033;-84
2022/01/20 09:54:33;;;;;;;7.75;2.00;;;;;;;4.83;57.78;100002.13;5004051;28;20022;-78
2022/01/20 09:57:31;;;;;;;16.08;2.05;;;;;;;4.64;58.00;99987.97;4993842;28;20026;-78
2022/01/20 10:00:17;;;;;;;16.23;2.20;;;;;;;3.57;59.25;100017.00;4995419;28;20172;-82
2022/01/20 10:02:51;;;;;;;10.45;1.88;;;;;;;3.28;60.53;100133.03;5001447;28;20037;-83
2022/01/20 10:05:29;;;;;;;11.18;2.30;;;;;;;2.96;62.03;100215.69;5009907;28;20032;-82
2022/01/20 10:08:21;;;;;;;13.52;2.35;;;;;;;3.01;62.35;100293.59;5000060;28;20529;-78
2022/01/20 10:10:59;;;;;;;11.60;1.60;;;;;;;2.82;62.67;100312.69;5002010;28;20041;-78
2022/01/20 10:13:44;;;;;;;11.50;1.73;;;;;;;2.71;62.47;100361.81;5018369;28;20704;-78
2022/01/20 10:16:17;;;;;;;14.13;1.90;;;;;;;2.90;62.55;100442.13;5021189;28;20432;-80
2022/01/20 10:19:00;;;;;;;8.90;2.55;;;;;;;3.00;62.09;100427.25;5005823;28;20044;-80
2022/01/20 10:21:36;;;;;;;8.95;1.98;;;;;;;3.19;62.13;100489.94;5023795;28;20030;-79
2022/01/20 10:24:16;;;;;;;14.60;4.20;;;;;;;3.35;61.64;100474.59;5013764;28;20549;-78
2022/01/20 10:26:51;;;;;;;11.80;2.35;;;;;;;3.58;61.27;100456.91;5006942;28;20705;-81
2022/01/20 10:29:17;;;;;;;13.73;3.58;;;;;;;3.19;61.13;100365.13;5006926;28;20116;-78
2022/01/20 10:31:53;;;;;;;16.75;2.45;;;;;;;3.61;61.41;100481.38;5006222;28;20727;-81
2022/01/20 10:34:33;;;;;;;21.50;3.80;;;;;;;3.88;61.22;100537.22;5020114;28;20026;-78
2022/01/20 10:37:15;;;;;;;10.65;1.95;;;;;;;4.18;59.84;100444.03;5004629;28;20040;-79
2022/01/20 10:39:49;;;;;;;14.57;2.40;;;;;;;4.21;59.19;100371.56;5021832;28;20041;-81
2022/01/20 10:42:26;;;;;;;11.02;2.28;;;;;;;4.42;58.88;100396.19;5025678;28;20075;-77
2022/01/20 10:44:56;;;;;;;15.35;3.03;;;;;;;4.30;58.48;100296.78;5005039;28;20041;-78
2022/01/20 10:47:29;;;;;;;5.93;1.80;;;;;;;3.95;59.39;100326.25;5007104;28;20048;-79
2022/01/20 10:49:56;;;;;;;9.00;1.92;;;;;;;3.30;60.19;100285.91;5020368;28;20041;-78
2022/01/20 10:52:32;;;;;;;12.60;3.05;;;;;;;3.92;62.67;100624.97;5003841;28;20064;-80
2022/01/20 10:54:58;;;;;;;13.68;2.25;;;;;;;3.57;61.14;100407.69;5005885;28;20040;-78
2022/01/20 10:57:30;;;;;;;12.05;2.00;;;;;;;3.34;61.42;100417.47;5023261;28;20033;-78
2022/01/20 11:00:04;;;;;;;23.45;3.10;;;;;;;2.90;62.13;100397.28;5019976;28;20383;-78
2022/01/20 11:02:48;;;;;;;10.32;1.75;;;;;;;2.82;63.02;100482.28;5028142;28;20029;-79
2022/01/20 11:05:15;;;;;;;14.50;3.30;;;;;;;2.89;63.91;100553.84;5003501;28;20825;-81
2022/01/20 11:07:43;;;;;;;11.95;2.80;;;;;;;2.96;64.56;100624.44;5020553;28;20097;-79
2022/01/20 11:10:10;;;;;;;17.48;3.33;;;;;;;2.54;64.81;100552.91;5023603;28;20029;-79
2022/01/20 11:12:39;;;;;;;23.85;3.42;;;;;;;3.05;64.17;100653.75;5023197;28;20144;-79
2022/01/20 11:15:14;;;;;;;12.57;2.45;;;;;;;3.57;62.77;100589.00;5004298;28;20041;-79
2022/01/20 11:17:42;;;;;;;12.43;3.33;;;;;;;3.65;62.33;100562.81;5003862;28;20034;-78
2022/01/20 11:20:12;;;;;;;10.80;2.55;;;;;;;3.59;61.66;100478.84;5015024;28;20116;-83
2022/01/20 11:23:01;;;;;;;9.23;1.90;;;;;;;3.83;60.78;100427.63;5007568;28;20030;-84
2022/01/20 11:25:35;;;;;;;14.27;2.78;;;;;;;3.69;61.35;100415.56;5002352;28;20029;-79
2022/01/20 11:28:22;;;;;;;14.73;3.20;;;;;;;3.18;61.47;100335.25;5020727;28;20048;-80
2022/01/20 11:30:58;;;;;;;11.38;2.00;;;;;;;2.84;62.01;100345.88;5021800;28;20068;-78
2022/01/20 11:33:52;;;;;;;9.38;3.13;;;;;;;2.51;63.22;100418.75;4987355;28;20104;-80
2022/01/20 11:36:27;;;;;;;10.13;3.17;;;;;;;2.13;64.38;100460.34;5012551;28;20037;-79
2022/01/20 11:39:00;;;;;;;10.07;1.67;;;;;;;1.72;65.92;100551.94;5012580;28;20042;-78
2022/01/20 11:41:49;;;;;;;9.45;1.95;;;;;;;1.43;66.84;100582.97;5022818;28;20034;-81
2022/01/20 11:44:18;;;;;;;6.60;1.27;;;;;;;1.21;68.32;100660.72;5001432;28;20112;-78
2022/01/20 11:46:46;;;;;;;9.85;2.47;;;;;;;1.10;70.02;100767.56;5021189;28;20030;-84
2022/01/20 11:49:14;;;;;;;8.30;1.48;;;;;;;1.09;71.32;100864.03;5023797;28;20073;-78
2022/01/20 11:51:57;;;;;;;8.38;2.70;;;;;;;1.10;72.22;100906.94;5009041;28;20094;-81
2022/01/20 11:54:27;;;;;;;13.38;3.67;;;;;;;1.84;72.35;101053.06;5029020;28;20044;-78
2022/01/20 11:57:10;;;;;;;13.48;2.03;;;;;;;2.72;70.25;101012.06;5004045;28;20037;-78
2022/01/20 11:59:37;;;;;;;10.60;2.47;;;;;;;3.52;66.80;100878.91;5004181;28;20038;-78
2022/01/20 12:02:03;;;;;;;6.50;2.42;;;;;;;3.90;63.76;100688.47;4996380;28;20025;-80
2022/01/20 12:04:43;;;;;;;6.95;1.50;;;;;;;3.24;60.69;100347.94;5012580;28;20037;-80
2022/01/20 12:07:27;;;;;;;7.65;1.52;;;;;;;2.19;59.16;100094.63;5012590;28;20032;-80
2022/01/20 12:10:07;;;;;;;7.28;1.70;;;;;;;2.03;59.43;100141.56;5010691;28;20088;-80
2022/01/20 12:12:33;;;;;;;4.40;1.38;;;;;;;1.51;61.33;100219.34;5028703;28;20044;-78
2022/01/20 12:15:16;;;;;;;5.75;1.20;;;;;;;1.00;66.81;100546.50;5011178;28;20116;-82
2022/01/20 12:17:53;;;;;;;8.68;1.65;;;;;;;0.32;71.53;100807.59;5028057;28;20033;-78
2022/01/20 12:20:20;;;;;;;10.23;1.52;;;;;;;0.18;74.06;100968.59;5022564;28;20038;-83
2022/01/20 12:22:46;;;;;;;11.00;1.65;;;;;;;0.12;76.05;101081.88;5018737;28;20032;-78
2022/01/20 12:25:27;;;;;;;4.15;1.38;;;;;;;0.36;76.25;101130.38;5028168;28;20114;-78
2022/01/20 12:28:04;;;;;;;6.47;1.17;;;;;;;0.33;76.22;101106.91;5026293;28;20543;-81
2022/01/20 12:30:30;;;;;;;8.15;3.70;;;;;;;1.02;76.40;101212.44;5007290;28;20060;-78
2022/01/20 12:33:07;;;;;;;4.13;1.48;;;;;;;1.44;74.78;101114.34;5003708;28;20069;-79
2022/01/20 12:35:41;;;;;;;9.40;1.67;;;;;;;2.16;72.58;101050.16;5011502;28;20044;-78
2022/01/20 12:38:25;;;;;;;13.18;2.35;;;;;;;2.70;69.98;100949.84;4997043;28;20029;-78
2022/01/20 12:41:01;;;;;;;10.02;1.17;;;;;;;2.15;68.71;100740.25;5028404;28;20037;-78
2022/01/20 12:43:40;;;;;;;;;;;;;;;2.01;68.62;100744.69;5028682;28;20094;-80
2022/01/20 12:46:08;;;;;;;8.95;2.05;;;;;;;2.43;68.08;100787.41;4997739;28;19913;-79
2022/01/20 12:48:33;;;;;;;9.13;1.60;;;;;;;3.02;67.13;100822.75;5010755;28;20076;-82
2022/01/20 12:51:04;;;;;;;7.03;1.38;;;;;;;3.05;65.29;100653.75;5009735;28;20479;-81
2022/01/20 12:53:39;;;;;;;9.23;1.38;;;;;;;3.00;63.89;100568.81;5011666;28;20048;-80
2022/01/20 12:56:07;;;;;;;7.60;1.45;;;;;;;3.77;62.75;100613.84;5013309;28;20032;-79